Friday, July 20, 2018, 4:44 AM EDT
Back to Local

KNHK, Nas Patuxent River Md

Location: Patuxent River, MD, United States Lat: 38.3
Local Time: 4:44 AM EDT ( 8:44 GMT) Lon: -76.4
Time Zone: US/Eastern Elev: 39 ft

Show me the last for .
Show Coded

Time T Td Feel RH Dir Speed Gust Alt SLP Vis Weather Sky Remarks
2018-07-20 03:52 71 65 76 81 160° 3 - 30.09 30.09 10 CLR None
2018-07-20 02:52 72 66 76 81 180° 5 - 30.09 30.09 10 CLR None
2018-07-20 01:52 74 66 77 76 190° 7 - 30.10 30.10 10 CLR 6-hr Min Temp (2am): 72.0°F
6-hr Max Temp (2am): 79.0°F
2018-07-20 00:52 73 67 77 81 190° 5 - 30.10 30.10 10 CLR 24-hr Min Temp (1am): 69.1°F
24-hr Max Temp (1am): 88.0°F
2018-07-19 23:52 74 66 77 76 160° 5 - 30.10 30.10 10 CLR None
2018-07-19 22:52 75 63 78 66 180° 7 - 30.09 30.09 10 BKN300 None
2018-07-19 21:52 76 61 78 59 190° 3 - 30.08 30.08 10 BKN300 None
2018-07-19 20:52 74 61 77 64 - Calm - 30.06 30.06 10 FEW060 BKN300 None
2018-07-19 19:52 79 60 80 52 70° 5 - 30.06 30.06 10 FEW060 BKN300 6-hr Min Temp (8pm): 79.0°F
6-hr Max Temp (8pm): 88.0°F
2018-07-19 18:52 84 57 - 39 80° 5 - 30.06 30.06 10 FEW060 BKN300 None
2018-07-19 17:52 85 56 - 37 90° 6 - 30.05 30.05 10 FEW050 SCT300 None
2018-07-19 16:52 86 57 - 37 130° 6 - 30.06 30.06 10 FEW050 SCT300 None
2018-07-19 15:52 88 57 - 35 20° 8 - 30.07 30.06 10 FEW050 SCT300 None
2018-07-19 14:52 87 57 - 36 80° 8 - 30.08 30.08 10 FEW050 BKN300 None
2018-07-19 13:52 86 57 - 37 90° 7 - 30.09 30.09 10 FEW050 BKN300 6-hr Min Temp (2pm): 73.9°F
6-hr Max Temp (2pm): 86.0°F
2018-07-19 12:52 84 58 84 41 60° 6 - 30.09 30.09 10 FEW050 BKN300 None
2018-07-19 11:52 84 61 85 45 Variable 3 - 30.10 30.09 10 SCT260 None
2018-07-19 10:52 82 61 83 49 30° 7 - 30.10 30.10 10 FEW260 None
2018-07-19 09:52 80 61 81 52 50° 7 - 30.09 30.09 10 FEW260 None
2018-07-19 08:52 79 62 81 56 70° 9 - 30.08 30.08 10 FEW200 None
2018-07-19 07:52 74 63 77 68 70° 9 - 30.06 30.06 10 FEW100 6-hr Min Temp (8am): 69.1°F
6-hr Max Temp (8am): 75.9°F
2018-07-19 06:52 74 63 77 68 70° 15 - 30.04 30.03 10 FEW100 None
2018-07-19 05:52 73 65 77 75 60° 13 - 30.02 30.02 10 SCT100 None
2018-07-19 04:52 72 67 76 84 60° 6 - 30.01 30.01 10 CLR None

Support USWX by starting your Amazon purchase here.